createdAt,value
2023-02-02T00:04:46.866Z,92941.78
2023-02-02T00:14:53.312Z,92857.41
2023-02-02T00:24:59.637Z,92842.28
2023-02-02T00:35:06.030Z,92769.72
2023-02-02T00:45:18.288Z,92723.22
2023-02-02T00:55:25.272Z,92666.78
2023-02-02T01:05:32.967Z,92594.13
2023-02-02T01:15:39.374Z,92538.34
2023-02-02T01:25:46.949Z,92493.03
2023-02-02T01:35:55.602Z,92451.09
2023-02-02T01:46:02.085Z,92400.56
2023-02-02T01:56:09.582Z,92344.88
2023-02-02T02:06:20.360Z,92287.25
2023-02-02T02:16:58.906Z,92225.41
2023-02-02T02:27:22.870Z,92152.13
2023-02-02T02:37:40.716Z,92087.19
2023-02-02T02:47:46.217Z,92037.72
2023-02-02T02:58:15.117Z,92022.84
2023-02-02T03:08:21.352Z,91945.41
2023-02-02T03:18:32.018Z,91918.22
2023-02-02T03:28:38.546Z,91916.34
2023-02-02T03:38:44.850Z,91919.34
2023-02-02T03:48:51.283Z,91957.66
2023-02-02T03:58:57.635Z,91969.19
2023-02-02T04:09:04.272Z,91989.34
2023-02-02T04:19:10.877Z,92002.38
2023-02-02T04:29:17.274Z,92033.03
2023-02-02T04:39:23.614Z,92056.00
2023-02-02T04:49:29.944Z,92120.41
2023-02-02T04:59:36.197Z,92215.75
2023-02-02T05:09:42.487Z,92302.34
2023-02-02T05:19:48.767Z,92422.75
2023-02-02T05:29:55.107Z,92422.75
2023-02-02T05:40:01.404Z,92736.00
2023-02-02T05:50:08.137Z,93007.88
2023-02-02T06:00:15.041Z,93257.06
2023-02-02T06:10:21.596Z,93415.41
2023-02-02T06:20:28.137Z,93469.69
2023-02-02T06:30:34.514Z,93519.19
2023-02-02T06:40:41.378Z,93551.19
2023-02-02T06:50:47.643Z,93611.69
2023-02-02T07:00:54.039Z,93629.69
2023-02-02T07:11:12.859Z,93577.28
2023-02-02T07:21:25.913Z,93523.09
2023-02-02T07:31:35.583Z,93460.87
2023-02-02T07:41:42.556Z,93414.56
2023-02-02T07:51:50.424Z,93369.87
2023-02-02T08:01:57.124Z,93365.13
2023-02-02T08:12:03.572Z,93348.59
2023-02-02T08:22:10.431Z,93313.81
2023-02-02T08:32:16.805Z,93297.22
2023-02-02T08:42:23.111Z,93268.69
2023-02-02T08:52:29.478Z,93172.78
2023-02-02T09:02:35.909Z,93147.38
2023-02-02T09:12:42.266Z,93162.94
2023-02-02T09:22:48.902Z,93140.69
2023-02-02T09:32:55.261Z,93077.91
2023-02-02T09:43:29.430Z,93017.72
2023-02-02T09:53:54.660Z,92860.75
2023-02-02T10:04:13.719Z,92703.72
2023-02-02T10:14:26.248Z,92505.16
2023-02-02T10:24:33.192Z,92379.91
2023-02-02T10:34:43.410Z,92348.31
2023-02-02T10:45:11.617Z,92327.66
2023-02-02T10:55:33.820Z,92314.12
2023-02-02T11:05:59.089Z,92311.72
2023-02-02T11:16:17.290Z,92078.19
2023-02-02T11:26:25.710Z,92059.84
2023-02-02T11:36:32.087Z,91863.31
2023-02-02T11:46:39.650Z,91870.50
2023-02-02T11:56:51.510Z,91909.28
2023-02-02T12:06:58.253Z,91903.56
2023-02-02T12:17:46.421Z,92015.19
2023-02-02T12:27:55.506Z,92109.97
2023-02-02T12:38:23.260Z,92151.22
2023-02-02T12:48:47.276Z,92272.69
2023-02-02T12:59:16.293Z,92314.00
2023-02-02T13:09:22.558Z,92346.84
2023-02-02T13:19:38.807Z,92438.47
2023-02-02T13:29:48.339Z,92451.00
2023-02-02T13:39:59.024Z,92448.53
2023-02-02T13:50:13.325Z,92579.94
2023-02-02T14:00:20.060Z,92808.63
2023-02-02T14:10:29.226Z,92979.53
2023-02-02T14:20:55.920Z,93171.87
2023-02-02T14:31:28.343Z,93440.53
2023-02-02T14:42:16.899Z,93636.56
2023-02-02T14:52:24.406Z,93763.09
2023-02-02T15:02:30.683Z,93869.84
2023-02-02T15:12:46.320Z,93987.78
2023-02-02T15:23:02.055Z,94033.66
2023-02-02T15:33:19.365Z,94091.84
2023-02-02T15:43:28.274Z,94150.28
2023-02-02T15:53:47.531Z,94177.41
2023-02-02T16:03:56.094Z,94231.37
2023-02-02T16:14:08.304Z,94263.13
2023-02-02T16:24:22.719Z,94267.53
2023-02-02T16:34:41.542Z,94277.84
2023-02-02T16:44:50.060Z,94269.50
2023-02-02T16:54:57.758Z,94263.88
2023-02-02T17:05:12.158Z,94284.53
2023-02-02T17:15:18.574Z,94301.13
2023-02-02T17:25:34.702Z,94355.63
2023-02-02T17:35:53.840Z,94387.97
2023-02-02T17:46:02.473Z,94406.00
2023-02-02T17:56:09.029Z,94471.47
2023-02-02T18:06:15.572Z,94620.09
2023-02-02T18:16:23.581Z,94769.31
2023-02-02T18:26:30.310Z,94914.22
2023-02-02T18:36:37.395Z,95075.63
2023-02-02T18:46:44.004Z,95264.19
2023-02-02T18:56:50.565Z,95450.59
2023-02-02T19:07:15.636Z,95628.19
2023-02-02T19:17:23.549Z,95770.28
2023-02-02T19:27:31.480Z,95902.84
2023-02-02T19:37:40.335Z,96021.47
2023-02-02T19:47:46.882Z,96103.09
2023-02-02T19:58:02.704Z,96182.72
2023-02-02T20:08:21.115Z,96229.88
2023-02-02T20:19:08.367Z,96281.25
2023-02-02T20:29:20.816Z,96316.00
2023-02-02T20:39:37.048Z,96359.06
2023-02-02T20:49:44.031Z,96402.31
2023-02-02T20:59:51.177Z,96441.91
2023-02-02T21:09:57.686Z,96462.53
2023-02-02T21:20:04.020Z,96488.72
2023-02-02T21:30:12.137Z,96506.88
2023-02-02T21:40:25.873Z,96517.69
2023-02-02T21:50:42.437Z,96522.69
2023-02-02T22:00:49.804Z,96516.69
2023-02-02T22:10:56.179Z,96517.50
2023-02-02T22:21:02.454Z,96542.69
2023-02-02T22:31:07.844Z,96568.59
2023-02-02T22:41:14.281Z,96566.81
2023-02-02T22:51:20.719Z,96579.97
2023-02-02T23:01:27.042Z,96582.59
2023-02-02T23:11:33.395Z,96608.72
2023-02-02T23:21:39.728Z,96621.59
2023-02-02T23:31:46.033Z,96624.87
2023-02-02T23:41:52.720Z,96638.84
2023-02-02T23:51:59.023Z,96654.78
